Time;durP1;ratioP1;P1;durP2;ratioP2;P2;SDS_P1;SDS_P2;PMS_P1;PMS_P2;Temp;Humidity;BMP_temperature;BMP_pressure;BME280_temperature;BME280_humidity;BME280_pressure;Samples;Min_cycle;Max_cycle;Signal;HPM_P1;HPM_P2
2022/03/29 00:01:53;;;;;;;1.55;1.45;;;;;;;9.51;87.21;100840.09;4994548;28;20078;-64
2022/03/29 00:04:18;;;;;;;0.30;0.30;;;;;;;9.47;86.88;100845.41;4989332;28;20029;-64
2022/03/29 00:06:44;;;;;;;0.38;0.32;;;;;;;9.40;87.57;100833.66;5001182;28;20137;-65
2022/03/29 00:09:09;;;;;;;0.82;0.82;;;;;;;9.48;86.50;100835.44;5002306;28;20052;-65
2022/03/29 00:11:35;;;;;;;0.30;0.30;;;;;;;9.45;86.47;100830.72;4991213;28;20045;-64
2022/03/29 00:14:02;;;;;;;0.40;0.40;;;;;;;9.46;86.19;100838.47;4991630;28;20030;-66
2022/03/29 00:16:29;;;;;;;0.98;0.95;;;;;;;9.52;85.18;100826.34;4971320;28;20413;-64
2022/03/29 00:18:54;;;;;;;0.22;0.22;;;;;;;9.42;85.29;100826.03;4997763;28;20026;-64
2022/03/29 00:21:20;;;;;;;0.75;0.40;;;;;;;9.52;84.60;100820.97;5001366;28;20084;-64
2022/03/29 00:23:45;;;;;;;1.17;0.40;;;;;;;9.46;85.04;100816.97;4995598;28;20074;-64
2022/03/29 00:26:12;;;;;;;1.38;1.17;;;;;;;9.30;85.20;100812.66;5005090;28;20140;-65
2022/03/29 00:28:37;;;;;;;0.10;0.10;;;;;;;9.38;84.62;100815.19;4999980;28;20048;-66
2022/03/29 00:31:03;;;;;;;0.10;0.10;;;;;;;9.56;83.47;100811.06;4987535;28;20259;-65
2022/03/29 00:33:28;;;;;;;0.45;0.45;;;;;;;9.51;83.90;100810.53;5001936;28;20401;-64
2022/03/29 00:35:53;;;;;;;0.43;0.43;;;;;;;9.48;83.88;100800.47;4999707;28;20109;-65
2022/03/29 00:38:19;;;;;;;0.63;0.43;;;;;;;9.40;84.32;100791.47;5003553;28;20066;-64
2022/03/29 00:40:45;;;;;;;1.30;1.10;;;;;;;9.36;84.44;100805.91;5001221;28;20401;-65
2022/03/29 00:43:12;;;;;;;0.38;0.38;;;;;;;9.46;83.97;100805.41;5001059;28;20462;-64
2022/03/29 00:45:37;;;;;;;0.10;0.10;;;;;;;9.45;83.66;100790.41;4995119;28;20117;-64
2022/03/29 00:48:06;;;;;;;0.50;0.50;;;;;;;9.53;82.84;100774.13;5002537;28;20269;-64
2022/03/29 00:50:32;;;;;;;0.32;0.32;;;;;;;9.38;83.53;100779.47;4992950;28;20038;-64
2022/03/29 00:52:57;;;;;;;0.50;0.50;;;;;;;9.56;82.42;100778.06;4991476;28;20096;-64
2022/03/29 00:55:23;;;;;;;1.55;1.25;;;;;;;9.40;83.50;100772.63;4991440;28;20034;-64
2022/03/29 00:57:50;;;;;;;0.50;0.50;;;;;;;9.48;83.18;100770.91;5002125;28;20556;-65
2022/03/29 01:00:16;;;;;;;0.25;0.25;;;;;;;9.41;83.93;100768.03;4993273;28;20042;-64
2022/03/29 01:02:43;;;;;;;2.42;0.95;;;;;;;9.31;84.28;100766.63;4998666;28;20041;-64
2022/03/29 01:05:09;;;;;;;0.90;0.90;;;;;;;9.43;84.00;100760.41;4980862;28;20065;-64
2022/03/29 01:07:35;;;;;;;0.60;0.55;;;;;;;9.33;84.17;100753.63;4998517;28;20077;-64
2022/03/29 01:10:01;;;;;;;1.42;1.27;;;;;;;9.27;85.30;100743.47;4996194;28;20587;-65
2022/03/29 01:12:29;;;;;;;2.03;0.88;;;;;;;9.30;84.83;100753.53;5010309;28;20116;-64
2022/03/29 01:14:55;;;;;;;1.17;0.63;;;;;;;9.44;84.00;100743.16;5003866;28;20049;-65
2022/03/29 01:17:39;;;;;;;0.40;0.40;;;;;;;9.39;84.33;100740.75;4985195;28;20476;-65
2022/03/29 01:20:29;;;;;;;0.50;0.50;;;;;;;9.49;83.03;100740.22;4988568;28;20042;-64
2022/03/29 01:22:57;;;;;;;0.52;0.52;;;;;;;9.40;83.96;100736.91;5001503;28;20400;-65
2022/03/29 01:25:31;;;;;;;0.47;0.47;;;;;;;9.39;83.04;100740.75;5009128;28;20345;-65
2022/03/29 01:27:59;;;;;;;0.82;0.82;;;;;;;9.33;84.09;100724.06;5005328;28;20030;-65
2022/03/29 01:30:25;;;;;;;1.65;0.85;;;;;;;9.24;84.25;100719.97;4988858;28;20048;-65
2022/03/29 01:32:52;;;;;;;0.32;0.32;;;;;;;9.40;83.85;100726.16;5003399;28;20121;-64
2022/03/29 01:35:23;;;;;;;0.50;0.40;;;;;;;9.39;83.39;100727.31;5005683;28;20034;-64
2022/03/29 01:37:49;;;;;;;0.55;0.55;;;;;;;9.40;83.04;100723.47;4995737;28;20038;-64
2022/03/29 01:40:17;;;;;;;1.60;0.75;;;;;;;9.40;83.03;100715.41;4992170;28;20041;-64
2022/03/29 01:42:57;;;;;;;1.10;0.75;;;;;;;9.36;83.25;100718.00;5011000;28;20037;-64
2022/03/29 01:45:24;;;;;;;1.27;0.38;;;;;;;9.41;82.59;100720.44;4992863;28;20045;-64
2022/03/29 01:47:50;;;;;;;0.28;0.28;;;;;;;9.46;82.02;100719.41;5003094;28;20397;-64
2022/03/29 01:50:16;;;;;;;0.35;0.35;;;;;;;9.40;82.73;100712.72;5005913;28;20028;-64
2022/03/29 01:52:45;;;;;;;0.13;0.13;;;;;;;9.47;82.70;100710.22;5005040;28;20049;-64
2022/03/29 01:55:12;;;;;;;1.08;0.93;;;;;;;9.50;82.16;100713.00;5001531;28;20034;-64
2022/03/29 01:57:39;;;;;;;0.70;0.70;;;;;;;9.34;82.83;100706.03;4998693;28;20034;-64
2022/03/29 02:02:51;;;;;;;0.68;0.68;;;;;;;9.42;82.22;100718.53;5002067;28;20057;-63
2022/03/29 02:05:17;;;;;;;4.28;0.98;;;;;;;9.47;81.87;100704.84;4983611;28;20042;-64
2022/03/29 02:07:43;;;;;;;0.70;0.70;;;;;;;9.39;82.51;100708.50;5008209;28;20115;-64
2022/03/29 02:10:09;;;;;;;0.45;0.45;;;;;;;9.27;83.17;100698.56;5004676;28;20457;-64
2022/03/29 02:12:34;;;;;;;0.50;0.50;;;;;;;9.34;82.99;100703.34;5000666;28;20567;-64
2022/03/29 02:14:59;;;;;;;0.40;0.40;;;;;;;9.42;81.95;100702.41;5000067;28;20098;-64
2022/03/29 02:17:25;;;;;;;0.52;0.32;;;;;;;9.41;81.92;100703.53;5000115;28;20528;-64
2022/03/29 02:19:50;;;;;;;0.15;0.15;;;;;;;9.26;82.68;100690.84;4992175;28;20070;-64
2022/03/29 02:22:16;;;;;;;1.77;0.55;;;;;;;9.36;82.45;100696.50;5007022;28;20096;-62
2022/03/29 02:24:42;;;;;;;0.93;0.90;;;;;;;9.27;82.50;100684.38;4997122;28;20035;-64
2022/03/29 02:27:08;;;;;;;0.40;0.40;;;;;;;9.39;82.41;100698.50;4995408;28;20228;-64
2022/03/29 02:29:34;;;;;;;0.70;0.70;;;;;;;9.49;81.84;100689.16;5001028;28;20253;-64
2022/03/29 02:31:59;;;;;;;0.63;0.60;;;;;;;9.36;82.45;100684.97;4994323;28;20103;-64
2022/03/29 02:34:24;;;;;;;0.50;0.50;;;;;;;9.32;82.50;100684.09;4993882;28;20521;-64
2022/03/29 02:36:50;;;;;;;0.55;0.55;;;;;;;9.37;82.04;100683.88;4995509;28;20043;-64
2022/03/29 02:39:16;;;;;;;0.20;0.20;;;;;;;9.28;83.00;100684.03;4999963;28;20034;-64
2022/03/29 02:41:41;;;;;;;0.60;0.60;;;;;;;9.24;83.19;100687.72;5003327;28;20038;-64
2022/03/29 02:44:07;;;;;;;0.22;0.22;;;;;;;9.40;82.31;100675.09;5011974;28;20033;-64
2022/03/29 02:46:34;;;;;;;0.57;0.57;;;;;;;9.41;82.61;100677.44;4992930;28;20038;-64
2022/03/29 02:49:00;;;;;;;0.30;0.30;;;;;;;9.44;82.49;100666.00;4994907;28;20041;-64
2022/03/29 02:51:25;;;;;;;0.20;0.20;;;;;;;9.45;82.12;100675.63;4985872;28;20080;-64
2022/03/29 02:53:50;;;;;;;0.50;0.50;;;;;;;9.33;82.59;100677.63;4987166;28;20505;-64
2022/03/29 02:56:16;;;;;;;0.40;0.35;;;;;;;9.39;82.58;100670.88;4995647;28;20037;-64
2022/03/29 02:58:41;;;;;;;0.20;0.20;;;;;;;9.33;82.22;100667.63;4991501;28;20113;-65
2022/03/29 03:01:07;;;;;;;0.20;0.20;;;;;;;9.32;82.14;100663.41;4996119;28;20129;-64
2022/03/29 03:03:32;;;;;;;0.13;0.13;;;;;;;9.18;82.38;100670.28;4991653;28;20030;-64
2022/03/29 03:05:58;;;;;;;0.55;0.55;;;;;;;9.12;82.84;100666.31;4977686;28;20089;-64
2022/03/29 03:08:23;;;;;;;0.40;0.40;;;;;;;9.31;79.91;100677.94;5036867;22;20052;-66
2022/03/29 03:10:49;;;;;;;0.55;0.55;;;;;;;9.06;78.94;100673.81;5043556;28;20034;-68
2022/03/29 03:13:15;;;;;;;0.30;0.30;;;;;;;9.05;77.62;100674.97;5032325;28;20033;-68
2022/03/29 03:15:41;;;;;;;0.20;0.20;;;;;;;9.04;77.13;100676.88;5041824;28;20044;-68
2022/03/29 03:18:06;;;;;;;0.10;0.10;;;;;;;8.82;78.13;100671.28;5049317;28;20090;-69
2022/03/29 03:20:32;;;;;;;0.30;0.30;;;;;;;8.72;78.41;100675.22;5043127;28;20112;-68
2022/03/29 03:22:57;;;;;;;0.95;0.30;;;;;;;8.68;78.63;100671.66;5033077;28;20154;-68
2022/03/29 03:25:23;;;;;;;0.30;0.30;;;;;;;8.73;77.67;100663.34;5031115;28;20331;-69
2022/03/29 03:27:49;;;;;;;0.25;0.25;;;;;;;8.61;78.70;100655.38;5048596;28;20044;-67
2022/03/29 03:30:16;;;;;;;0.38;0.38;;;;;;;8.52;79.33;100659.28;5027777;28;20400;-65
2022/03/29 03:32:42;;;;;;;0.10;0.10;;;;;;;8.56;79.08;100663.63;5008809;28;20037;-66
2022/03/29 03:35:08;;;;;;;0.38;0.30;;;;;;;8.51;79.18;100663.09;5045875;28;20032;-68
2022/03/29 03:37:34;;;;;;;0.10;0.10;;;;;;;8.43;79.56;100667.50;5042810;28;20719;-67
2022/03/29 03:40:00;;;;;;;0.30;0.30;;;;;;;8.29;80.29;100671.63;5042264;28;20032;-68
2022/03/29 03:42:26;;;;;;;0.17;0.17;;;;;;;8.24;80.87;100669.97;5048810;28;20498;-68
2022/03/29 03:44:51;;;;;;;0.30;0.30;;;;;;;8.23;81.00;100671.06;5044569;28;20056;-68
2022/03/29 03:47:17;;;;;;;0.10;0.10;;;;;;;8.19;81.28;100668.28;5042164;28;20032;-68
2022/03/29 03:49:42;;;;;;;0.10;0.10;;;;;;;8.28;80.81;100665.53;5028199;28;20044;-67
2022/03/29 03:52:08;;;;;;;1.67;1.23;;;;;;;8.20;81.27;100667.19;5040822;28;20595;-68
2022/03/29 03:54:35;;;;;;;0.10;0.10;;;;;;;8.08;82.28;100677.91;5045148;28;20024;-67
2022/03/29 03:57:01;;;;;;;0.10;0.10;;;;;;;8.09;82.65;100662.63;5034874;28;20077;-66
2022/03/29 03:59:26;;;;;;;0.20;0.20;;;;;;;8.19;82.54;100665.59;5045988;28;20029;-68
2022/03/29 04:01:52;;;;;;;0.38;0.30;;;;;;;8.34;81.94;100664.16;5042326;28;20549;-67
2022/03/29 04:04:18;;;;;;;0.98;0.98;;;;;;;8.38;81.54;100656.97;5038491;28;20041;-67
2022/03/29 04:06:44;;;;;;;0.68;0.68;;;;;;;8.32;82.57;100654.88;5036757;28;20228;-68
2022/03/29 04:09:09;;;;;;;0.10;0.10;;;;;;;8.14;83.35;100657.00;5043320;28;20527;-67
2022/03/29 04:11:35;;;;;;;0.15;0.15;;;;;;;8.11;83.52;100645.06;5040287;28;20091;-67
2022/03/29 04:14:01;;;;;;;0.30;0.30;;;;;;;8.09;83.72;100651.88;5026064;28;20427;-67
2022/03/29 04:16:27;;;;;;;0.20;0.20;;;;;;;8.06;83.82;100653.34;5042879;28;20041;-68
2022/03/29 04:18:52;;;;;;;0.10;0.10;;;;;;;8.01;84.15;100655.47;5039929;28;20036;-68
2022/03/29 04:21:18;;;;;;;0.40;0.40;;;;;;;8.08;83.64;100659.16;5047113;28;20025;-67
2022/03/29 04:23:43;;;;;;;0.10;0.10;;;;;;;8.06;83.92;100655.22;5049276;28;20037;-68
2022/03/29 04:26:09;;;;;;;0.20;0.20;;;;;;;8.04;83.42;100660.16;5041608;28;20036;-68
2022/03/29 04:28:35;;;;;;;0.15;0.15;;;;;;;7.92;84.07;100660.16;5045142;28;20080;-67
2022/03/29 04:31:00;;;;;;;0.20;0.20;;;;;;;7.92;84.07;100646.75;5043538;28;20041;-67
2022/03/29 04:33:26;;;;;;;0.13;0.13;;;;;;;7.85;84.54;100644.66;5047575;28;20089;-67
2022/03/29 04:35:53;;;;;;;0.10;0.10;;;;;;;7.78;84.73;100643.66;5031150;28;20033;-66
2022/03/29 04:38:19;;;;;;;0.10;0.10;;;;;;;7.87;84.59;100649.66;5039549;28;20033;-66
2022/03/29 04:40:45;;;;;;;0.30;0.30;;;;;;;7.72;84.87;100639.63;5041124;28;20052;-68
2022/03/29 04:43:10;;;;;;;0.10;0.10;;;;;;;7.72;84.74;100636.94;5040726;28;20033;-67
2022/03/29 04:45:36;;;;;;;0.10;0.10;;;;;;;7.74;85.28;100632.03;5046391;28;20048;-68
2022/03/29 04:48:01;;;;;;;0.10;0.10;;;;;;;7.68;84.87;100639.53;5044254;28;20036;-68
2022/03/29 04:50:27;;;;;;;0.10;0.10;;;;;;;7.71;84.91;100640.72;5031349;28;20029;-67
2022/03/29 04:52:52;;;;;;;0.10;0.10;;;;;;;7.72;85.23;100648.47;5029199;28;20399;-67
2022/03/29 04:55:18;;;;;;;0.13;0.13;;;;;;;7.69;85.57;100643.75;5048521;28;20060;-68
2022/03/29 04:57:47;;;;;;;0.10;0.10;;;;;;;7.69;85.60;100643.75;5027584;28;20078;-67
2022/03/29 05:00:14;;;;;;;0.20;0.20;;;;;;;7.68;85.99;100641.41;5025301;28;20160;-66
2022/03/29 05:02:43;;;;;;;0.10;0.10;;;;;;;7.77;84.58;100640.19;5023484;28;20098;-68
2022/03/29 05:05:12;;;;;;;0.10;0.10;;;;;;;7.70;85.24;100633.81;5046721;28;20029;-68
2022/03/29 05:07:37;;;;;;;0.10;0.10;;;;;;;7.70;85.02;100636.50;5042082;28;20051;-66
2022/03/29 05:10:04;;;;;;;0.20;0.20;;;;;;;7.50;86.19;100632.03;5023021;28;20034;-67
2022/03/29 05:12:30;;;;;;;0.10;0.10;;;;;;;7.45;86.87;100642.97;5028420;28;20040;-67
2022/03/29 05:14:59;;;;;;;0.10;0.10;;;;;;;7.45;86.80;100638.41;5041406;28;20048;-66
2022/03/29 05:17:24;;;;;;;0.00;0.00;;;;;;;7.42;87.02;100638.25;5043214;28;20155;-68
2022/03/29 05:19:50;;;;;;;0.10;0.10;;;;;;;7.42;86.86;100638.25;5036518;28;20147;-68
2022/03/29 05:22:15;;;;;;;0.10;0.10;;;;;;;7.40;87.39;100641.28;5031676;28;20029;-67
2022/03/29 05:24:40;;;;;;;0.10;0.10;;;;;;;7.50;86.50;100642.75;5039564;28;20078;-65
2022/03/29 05:27:06;;;;;;;0.55;0.55;;;;;;;7.42;86.84;100635.59;5036061;28;20032;-66
2022/03/29 05:29:31;;;;;;;3.38;0.25;;;;;;;7.38;86.85;100627.44;5037460;28;20515;-68
2022/03/29 05:31:58;;;;;;;0.20;0.20;;;;;;;7.37;87.20;100625.88;5045096;28;20044;-67
2022/03/29 05:34:23;;;;;;;0.10;0.10;;;;;;;7.38;87.85;100632.00;5021189;28;20033;-66
2022/03/29 05:36:49;;;;;;;0.10;0.10;;;;;;;7.36;87.23;100635.03;5040430;28;20120;-66
2022/03/29 05:39:15;;;;;;;1.30;1.20;;;;;;;7.32;87.70;100634.91;5042116;28;20209;-67
2022/03/29 05:41:42;;;;;;;0.45;0.45;;;;;;;7.37;87.58;100635.81;5040022;28;20116;-67
2022/03/29 05:44:07;;;;;;;0.40;0.30;;;;;;;7.38;87.09;100626.66;5025343;28;20044;-67
2022/03/29 05:49:17;;;;;;;0.10;0.10;;;;;;;7.54;86.16;100623.00;5033815;28;20357;-66
2022/03/29 05:51:42;;;;;;;0.10;0.10;;;;;;;7.46;86.60;100631.91;5023272;28;20047;-66
2022/03/29 05:54:08;;;;;;;0.20;0.20;;;;;;;7.41;87.65;100640.19;5045317;28;20063;-68
2022/03/29 05:56:33;;;;;;;0.10;0.10;;;;;;;7.45;86.87;100637.63;5039400;28;20072;-67
2022/03/29 05:58:59;;;;;;;0.30;0.30;;;;;;;7.56;86.82;100633.38;5048617;28;20037;-68
2022/03/29 06:01:25;;;;;;;0.55;0.55;;;;;;;7.52;87.02;100640.50;5042210;28;20045;-65
2022/03/29 06:03:50;;;;;;;0.10;0.10;;;;;;;7.48;85.86;100645.75;5043242;28;20106;-65
2022/03/29 06:06:16;;;;;;;0.10;0.10;;;;;;;7.52;86.59;100637.81;5045852;28;20479;-67
2022/03/29 06:08:41;;;;;;;0.40;0.40;;;;;;;7.79;84.31;100643.31;5042357;28;20088;-66
2022/03/29 06:11:07;;;;;;;0.10;0.10;;;;;;;7.82;84.28;100639.94;5045046;28;20056;-67
2022/03/29 06:13:33;;;;;;;0.10;0.10;;;;;;;7.62;85.37;100640.06;5043382;28;20380;-66
2022/03/29 06:15:59;;;;;;;0.10;0.10;;;;;;;7.59;85.75;100646.88;5044654;28;20048;-68
2022/03/29 06:18:24;;;;;;;0.10;0.10;;;;;;;7.64;86.12;100635.16;5044084;28;20045;-66
2022/03/29 06:20:51;;;;;;;0.10;0.10;;;;;;;7.89;84.21;100642.06;5041027;28;20033;-65
2022/03/29 06:23:17;;;;;;;0.20;0.20;;;;;;;7.95;83.51;100630.78;5045875;28;20028;-67
2022/03/29 06:25:43;;;;;;;0.20;0.20;;;;;;;8.11;82.48;100633.53;5044612;28;20047;-68
2022/03/29 06:28:10;;;;;;;0.20;0.20;;;;;;;8.13;81.70;100636.66;5042303;28;20543;-67
2022/03/29 06:30:37;;;;;;;0.10;0.10;;;;;;;8.00;82.02;100638.59;5041911;28;20116;-67
2022/03/29 06:33:03;;;;;;;0.10;0.10;;;;;;;8.08;82.35;100631.53;5042350;28;20060;-65
2022/03/29 06:35:30;;;;;;;0.10;0.10;;;;;;;8.16;82.49;100636.00;5042678;28;20530;-66
2022/03/29 06:37:58;;;;;;;0.10;0.10;;;;;;;7.99;82.37;100636.25;5040617;28;20035;-68
2022/03/29 06:40:26;;;;;;;0.10;0.10;;;;;;;8.03;82.74;100645.19;5042497;28;20028;-68
2022/03/29 06:42:52;;;;;;;0.10;0.10;;;;;;;8.20;82.03;100634.22;5018756;28;20052;-67
2022/03/29 06:45:18;;;;;;;0.10;0.10;;;;;;;8.35;81.18;100640.78;5026562;28;20037;-67
2022/03/29 06:47:44;;;;;;;0.22;0.22;;;;;;;8.45;79.91;100626.88;5038410;28;20033;-67
2022/03/29 06:50:10;;;;;;;0.13;0.13;;;;;;;8.58;79.77;100629.19;5025456;28;20515;-66
2022/03/29 06:52:38;;;;;;;0.10;0.10;;;;;;;8.59;79.66;100633.44;5040979;28;20040;-66
2022/03/29 06:55:05;;;;;;;0.10;0.10;;;;;;;8.72;78.79;100631.47;5012832;28;20360;-68
2022/03/29 06:57:31;;;;;;;0.10;0.10;;;;;;;8.71;79.44;100636.06;5042180;28;20052;-68
2022/03/29 06:59:56;;;;;;;0.10;0.10;;;;;;;8.83;79.00;100636.00;5042352;28;20407;-67
2022/03/29 07:02:24;;;;;;;0.20;0.20;;;;;;;8.88;78.53;100643.81;5040057;28;20500;-68
2022/03/29 07:04:50;;;;;;;0.10;0.10;;;;;;;9.12;77.91;100634.09;5002855;28;20274;-67
2022/03/29 07:07:16;;;;;;;0.10;0.10;;;;;;;9.39;76.46;100636.69;5038560;28;20068;-67
2022/03/29 07:12:26;;;;;;;0.10;0.10;;;;;;;9.58;73.27;100626.00;5045942;28;20044;-68
2022/03/29 07:14:51;;;;;;;0.05;0.05;;;;;;;9.75;72.64;100636.44;5044532;28;20032;-68
2022/03/29 07:17:17;;;;;;;0.20;0.20;;;;;;;9.96;70.96;100628.84;5040123;28;20492;-68
2022/03/29 07:19:43;;;;;;;0.10;0.10;;;;;;;9.90;71.45;100627.53;5022299;28;20081;-69
2022/03/29 07:22:12;;;;;;;0.10;0.10;;;;;;;9.96;70.44;100636.13;5043869;28;20391;-66
2022/03/29 07:24:38;;;;;;;0.10;0.10;;;;;;;9.90;71.63;100627.53;5037261;28;20067;-68
2022/03/29 07:27:04;;;;;;;0.10;0.10;;;;;;;10.15;70.72;100628.09;5041729;28;20056;-69
2022/03/29 07:29:30;;;;;;;0.10;0.10;;;;;;;10.31;69.04;100618.06;5040342;28;20064;-65
2022/03/29 07:31:55;;;;;;;0.20;0.20;;;;;;;10.43;68.22;100622.53;5040877;28;20163;-67
2022/03/29 07:34:21;;;;;;;0.10;0.10;;;;;;;10.62;67.56;100622.53;5040997;28;20068;-66
2022/03/29 07:36:48;;;;;;;0.10;0.10;;;;;;;10.71;66.93;100629.25;5038186;28;20463;-65
2022/03/29 07:39:14;;;;;;;0.10;0.10;;;;;;;10.80;65.21;100629.81;5041329;28;20120;-68
2022/03/29 07:41:39;;;;;;;0.20;0.20;;;;;;;10.92;65.38;100620.03;5037754;28;20112;-66
2022/03/29 07:44:05;;;;;;;0.10;0.10;;;;;;;11.13;64.54;100623.84;5020632;28;20640;-68
2022/03/29 07:46:33;;;;;;;0.10;0.10;;;;;;;11.06;63.57;100621.06;5018667;28;20049;-66
2022/03/29 07:48:59;;;;;;;0.10;0.10;;;;;;;11.05;62.86;100624.91;5039005;28;20329;-68
2022/03/29 07:51:24;;;;;;;0.25;0.25;;;;;;;11.08;62.71;100621.47;5022405;28;20824;-68
2022/03/29 07:53:51;;;;;;;0.22;0.22;;;;;;;10.93;63.35;100627.75;5041379;28;20033;-68
2022/03/29 07:56:16;;;;;;;0.10;0.10;;;;;;;10.79;63.54;100628.25;5042641;28;20402;-68
2022/03/29 07:58:42;;;;;;;0.10;0.10;;;;;;;10.86;63.16;100630.28;5039146;28;20044;-67
2022/03/29 08:01:07;;;;;;;0.30;0.30;;;;;;;10.96;63.46;100621.63;5020723;28;20029;-66
2022/03/29 08:03:33;;;;;;;1.85;0.55;;;;;;;11.07;63.44;100619.16;5039965;28;20041;-68
2022/03/29 08:06:03;;;;;;;0.52;0.40;;;;;;;11.21;64.07;100622.06;5037328;28;20036;-68
2022/03/29 08:08:29;;;;;;;0.22;0.22;;;;;;;11.33;62.22;100628.06;5041264;28;20071;-68
2022/03/29 08:10:55;;;;;;;0.10;0.10;;;;;;;11.29;61.23;100613.75;5023717;28;20087;-65
2022/03/29 08:13:22;;;;;;;0.10;0.10;;;;;;;11.20;59.98;100623.22;5035044;28;20043;-67
2022/03/29 08:15:49;;;;;;;0.10;0.10;;;;;;;11.17;61.51;100613.16;5041323;28;20045;-67
2022/03/29 08:18:16;;;;;;;0.10;0.10;;;;;;;11.35;60.67;100606.13;5042695;28;20040;-68
2022/03/29 08:20:42;;;;;;;0.10;0.10;;;;;;;11.54;59.58;100617.63;5044577;28;20029;-67
2022/03/29 08:23:09;;;;;;;0.00;0.00;;;;;;;11.70;59.27;100610.19;5047313;28;20483;-68
2022/03/29 08:25:37;;;;;;;0.00;0.00;;;;;;;11.94;58.02;100609.00;5047820;28;20037;-67
2022/03/29 08:28:03;;;;;;;0.10;0.10;;;;;;;12.06;58.49;100611.47;5044694;28;20033;-68
2022/03/29 08:30:30;;;;;;;0.10;0.10;;;;;;;12.29;57.36;100606.00;5041117;28;20045;-67
2022/03/29 08:32:57;;;;;;;0.00;0.00;;;;;;;12.56;56.92;100596.69;5042539;28;20102;-68
2022/03/29 08:35:24;;;;;;;0.10;0.10;;;;;;;12.83;56.25;100600.03;5043229;28;20371;-65
2022/03/29 08:37:50;;;;;;;0.00;0.00;;;;;;;12.92;55.04;100601.31;5031821;28;20059;-68
2022/03/29 08:40:21;;;;;;;0.08;0.08;;;;;;;13.03;54.60;100596.78;5047708;28;20029;-66
2022/03/29 08:42:48;;;;;;;0.00;0.00;;;;;;;12.93;54.65;100596.69;5042474;28;20394;-67
2022/03/29 08:45:16;;;;;;;0.10;0.10;;;;;;;13.05;53.83;100586.38;5029318;28;20372;-68
2022/03/29 08:47:45;;;;;;;0.00;0.00;;;;;;;13.02;53.31;100583.63;5029622;28;21090;-66
2022/03/29 08:50:12;;;;;;;0.00;0.00;;;;;;;13.37;53.17;100586.66;5038243;28;20056;-68
2022/03/29 08:52:42;;;;;;;0.00;0.00;;;;;;;13.55;52.58;100590.25;5037224;28;20070;-67
2022/03/29 08:55:08;;;;;;;0.00;0.00;;;;;;;13.64;51.47;100585.31;5017734;28;20407;-66
2022/03/29 08:57:35;;;;;;;0.57;0.57;;;;;;;13.67;50.57;100591.88;5038183;28;20049;-69
2022/03/29 09:00:01;;;;;;;0.00;0.00;;;;;;;13.69;51.04;100590.38;5038148;28;20029;-66
2022/03/29 09:02:32;;;;;;;0.10;0.10;;;;;;;13.74;50.37;100583.84;5044243;28;21844;-67
2022/03/29 09:05:07;;;;;;;0.05;0.05;;;;;;;13.73;51.50;100582.25;5043845;28;20036;-69
2022/03/29 09:07:54;;;;;;;0.17;0.17;;;;;;;14.05;50.18;100577.81;5036750;28;20049;-66
2022/03/29 09:10:39;;;;;;;0.17;0.17;;;;;;;14.20;49.96;100576.72;5033171;28;20055;-67
2022/03/29 09:13:15;;;;;;;0.00;0.00;;;;;;;14.25;48.66;100577.13;5043989;28;20031;-70
2022/03/29 09:15:41;;;;;;;0.47;0.47;;;;;;;14.31;47.73;100575.63;5025810;28;20051;-66
2022/03/29 09:18:08;;;;;;;0.00;0.00;;;;;;;14.23;48.72;100576.72;5028081;28;20029;-70
2022/03/29 09:20:33;;;;;;;0.10;0.10;;;;;;;14.37;48.13;100571.41;5021670;28;20116;-65
2022/03/29 09:22:59;;;;;;;0.20;0.20;;;;;;;14.38;47.43;100574.91;5036216;28;20776;-65
2022/03/29 09:25:35;;;;;;;0.00;0.00;;;;;;;14.32;48.00;100571.75;5032311;28;20166;-69
2022/03/29 09:28:13;;;;;;;0.00;0.00;;;;;;;14.30;47.89;100584.16;5047346;28;20462;-66
2022/03/29 09:30:43;;;;;;;0.00;0.00;;;;;;;14.48;48.17;100576.09;5006461;28;20041;-67
2022/03/29 09:33:14;;;;;;;0.10;0.10;;;;;;;14.66;48.84;100568.75;5039792;28;20032;-68
2022/03/29 09:35:54;;;;;;;0.28;0.22;;;;;;;14.74;48.34;100583.88;5044742;28;20052;-67
2022/03/29 09:38:23;;;;;;;0.80;0.40;;;;;;;14.87;45.85;100583.13;5044149;28;20036;-66
2022/03/29 09:40:49;;;;;;;0.00;0.00;;;;;;;14.89;46.50;100569.19;5038789;28;20040;-69
2022/03/29 09:43:36;;;;;;;0.00;0.00;;;;;;;15.02;46.17;100563.00;5038397;28;20506;-70
2022/03/29 09:46:12;;;;;;;0.00;0.00;;;;;;;15.03;46.15;100556.44;5035795;28;20499;-66
2022/03/29 09:48:45;;;;;;;0.20;0.20;;;;;;;15.13;45.76;100560.31;5024605;28;20465;-67
2022/03/29 09:51:21;;;;;;;0.00;0.00;;;;;;;15.28;46.00;100546.38;5032965;28;20907;-69
2022/03/29 09:53:58;;;;;;;0.03;0.03;;;;;;;15.43;43.85;100547.13;5012563;28;20043;-67
2022/03/29 09:56:26;;;;;;;0.00;0.00;;;;;;;15.37;44.46;100544.00;5042847;28;20064;-69
2022/03/29 09:59:10;;;;;;;0.00;0.00;;;;;;;15.38;45.07;100545.59;5043461;28;20037;-70
2022/03/29 10:02:00;;;;;;;0.10;0.10;;;;;;;15.37;44.87;100538.59;5044802;28;20049;-67
2022/03/29 10:04:30;;;;;;;0.00;0.00;;;;;;;15.63;45.13;100536.63;5042403;28;20037;-70
2022/03/29 10:07:03;;;;;;;0.10;0.10;;;;;;;15.75;44.38;100541.66;5038960;28;20048;-69
2022/03/29 10:09:33;;;;;;;0.00;0.00;;;;;;;15.70;44.81;100542.06;5011205;28;20044;-67
2022/03/29 10:12:04;;;;;;;0.00;0.00;;;;;;;15.74;45.50;100530.00;5040678;28;20075;-68
2022/03/29 10:14:38;;;;;;;0.00;0.00;;;;;;;15.96;44.14;100531.50;5042504;28;20051;-69
2022/03/29 10:17:06;;;;;;;0.00;0.00;;;;;;;15.98;44.23;100526.47;5040813;28;20028;-69
2022/03/29 10:19:32;;;;;;;0.00;0.00;;;;;;;16.17;45.36;100534.13;5040628;28;20459;-61
2022/03/29 10:22:02;;;;;;;0.00;0.00;;;;;;;16.34;44.79;100521.63;5046863;28;20040;-61
2022/03/29 10:24:29;;;;;;;1.13;0.52;;;;;;;16.36;42.77;100527.44;5019930;28;20045;-62
2022/03/29 10:27:02;;;;;;;0.52;0.52;;;;;;;16.34;43.77;100523.59;5041633;28;20025;-62
2022/03/29 10:29:28;;;;;;;0.00;0.00;;;;;;;16.40;41.78;100530.13;5042505;28;20503;-60
2022/03/29 10:31:57;;;;;;;0.08;0.08;;;;;;;16.12;42.01;100515.50;5024273;28;20507;-62
2022/03/29 10:34:26;;;;;;;0.10;0.10;;;;;;;16.16;43.12;100518.22;5022040;28;20479;-61
2022/03/29 10:37:03;;;;;;;0.00;0.00;;;;;;;16.15;44.06;100517.44;5041272;28;20068;-60
2022/03/29 10:40:05;;;;;;;0.00;0.00;;;;;;;16.23;44.40;100513.53;5039256;28;20040;-61
2022/03/29 10:42:36;;;;;;;0.85;0.52;;;;;;;16.43;43.35;100519.25;5039786;28;20511;-61
2022/03/29 10:45:10;;;;;;;0.00;0.00;;;;;;;16.62;42.74;100509.84;5036659;28;20036;-60
2022/03/29 10:47:36;;;;;;;0.00;0.00;;;;;;;16.58;42.79;100509.09;5041474;28;20040;-61
2022/03/29 10:50:04;;;;;;;0.00;0.00;;;;;;;16.80;42.19;100510.50;5045699;28;20056;-66
2022/03/29 10:52:40;;;;;;;0.00;0.00;;;;;;;16.78;43.15;100504.69;5025618;28;20118;-67
2022/03/29 10:55:28;;;;;;;0.00;0.00;;;;;;;16.76;43.30;100494.19;5025845;28;20041;-64
2022/03/29 10:58:10;;;;;;;0.10;0.10;;;;;;;16.63;42.84;100484.19;5040898;28;20032;-66
2022/03/29 11:00:38;;;;;;;0.00;0.00;;;;;;;16.75;42.75;100487.22;5045579;28;20025;-66
2022/03/29 11:03:22;;;;;;;0.08;0.08;;;;;;;16.57;42.83;100483.09;5045714;28;20045;-61
2022/03/29 11:06:08;;;;;;;0.00;0.00;;;;;;;16.78;42.22;100482.91;5045365;28;20044;-61
2022/03/29 11:08:36;;;;;;;0.05;0.05;;;;;;;16.79;41.60;100481.75;5042011;28;20037;-61
2022/03/29 11:11:03;;;;;;;0.15;0.15;;;;;;;16.34;42.95;100477.38;5034851;28;20492;-62
2022/03/29 11:13:34;;;;;;;0.30;0.30;;;;;;;16.27;43.06;100472.75;5038776;28;21815;-62
2022/03/29 11:16:20;;;;;;;;;;;;;;;16.50;42.38;100473.00;5033623;28;20106;-62
2022/03/29 11:18:45;;;;;;;0.00;0.00;;;;;;;16.91;41.07;100476.59;5027004;28;20383;-65
2022/03/29 11:21:37;;;;;;;0.00;0.00;;;;;;;16.97;40.80;100463.31;5040191;28;20032;-62
2022/03/29 11:24:05;;;;;;;0.00;0.00;;;;;;;16.78;40.47;100455.72;5039410;28;20037;-66
2022/03/29 11:26:33;;;;;;;0.20;0.20;;;;;;;17.10;40.16;100462.44;5036503;28;20124;-64
2022/03/29 11:29:00;;;;;;;0.00;0.00;;;;;;;16.91;40.72;100459.50;5036761;28;20396;-65
2022/03/29 11:31:34;;;;;;;0.10;0.10;;;;;;;17.07;41.38;100463.22;5007712;28;20033;-62
2022/03/29 11:34:00;;;;;;;0.10;0.10;;;;;;;17.13;40.71;100469.00;5042570;28;20041;-58
2022/03/29 11:36:25;;;;;;;0.00;0.00;;;;;;;17.31;39.50;100458.72;5042529;28;20098;-59
2022/03/29 11:38:51;;;;;;;0.00;0.00;;;;;;;17.40;39.80;100458.25;5043652;28;20067;-59
2022/03/29 11:41:29;;;;;;;0.28;0.28;;;;;;;17.29;39.92;100455.63;5042737;28;20029;-57
2022/03/29 11:44:05;;;;;;;0.60;0.60;;;;;;;17.41;39.73;100454.34;5036484;28;20442;-59